Time;durP1;ratioP1;P1;durP2;ratioP2;P2;SDS_P1;SDS_P2;PMS_P1;PMS_P2;Temp;Humidity;BMP_temperature;BMP_pressure;BME280_temperature;BME280_humidity;BME280_pressure;Samples;Min_cycle;Max_cycle;Signal;HPM_P1;HPM_P2
2021/06/12 00:01:37;;;;;;;7.25;6.53;;;;;;;20.71;59.25;97508.09;5025944;28;20136;-79
2021/06/12 00:04:03;;;;;;;6.43;5.93;;;;;;;20.63;59.58;97506.22;5057922;28;20045;-79
2021/06/12 00:06:28;;;;;;;6.72;6.13;;;;;;;20.55;59.41;97504.25;5025408;28;20035;-79
2021/06/12 00:08:54;;;;;;;7.28;6.60;;;;;;;20.50;59.78;97499.84;5053829;28;20029;-79
2021/06/12 00:11:19;;;;;;;7.50;5.85;;;;;;;20.58;59.66;97515.00;5045397;28;20051;-79
2021/06/12 00:13:44;;;;;;;7.20;6.63;;;;;;;20.47;60.02;97518.97;5050450;28;20021;-78
2021/06/12 00:16:10;;;;;;;6.85;6.15;;;;;;;20.43;60.06;97517.25;5035773;28;20033;-79
2021/06/12 00:18:35;;;;;;;6.88;6.20;;;;;;;20.43;59.94;97515.38;5052647;28;20040;-79
2021/06/12 00:21:02;;;;;;;7.05;6.35;;;;;;;20.50;59.95;97525.53;5069201;28;20039;-78
2021/06/12 00:23:27;;;;;;;7.15;6.55;;;;;;;20.48;60.10;97522.41;5052756;28;20086;-79
2021/06/12 00:25:53;;;;;;;7.32;6.72;;;;;;;20.43;60.39;97523.31;5067805;28;20037;-79
2021/06/12 00:28:18;;;;;;;7.72;6.82;;;;;;;20.34;60.39;97514.50;5047277;28;20536;-79
2021/06/12 00:30:44;;;;;;;7.93;7.07;;;;;;;20.35;60.44;97524.78;5068112;28;20043;-79
2021/06/12 00:33:09;;;;;;;7.28;6.72;;;;;;;20.35;60.25;97516.84;5035719;28;20031;-79
2021/06/12 00:35:35;;;;;;;7.05;6.45;;;;;;;20.25;60.92;97509.16;5030428;28;20037;-79
2021/06/12 00:38:00;;;;;;;7.65;7.03;;;;;;;20.21;60.81;97510.84;5069251;28;20795;-79
2021/06/12 00:40:26;;;;;;;7.38;6.78;;;;;;;20.20;61.01;97509.25;5070153;28;20555;-79
2021/06/12 00:42:52;;;;;;;7.13;6.53;;;;;;;20.17;60.83;97510.66;5036235;28;20236;-79
2021/06/12 00:45:21;;;;;;;7.07;6.47;;;;;;;20.17;61.01;97515.94;5064240;28;20033;-79
2021/06/12 00:47:47;;;;;;;8.13;7.43;;;;;;;20.18;60.93;97506.91;5072577;28;20036;-79
2021/06/12 00:50:13;;;;;;;7.53;6.82;;;;;;;20.32;61.09;97509.53;5040826;28;20437;-79
2021/06/12 00:52:39;;;;;;;7.78;7.05;;;;;;;20.20;61.12;97504.78;5064399;28;20112;-78
2021/06/12 00:55:06;;;;;;;7.32;6.72;;;;;;;20.21;61.04;97516.91;5055980;28;20089;-79
2021/06/12 00:57:47;;;;;;;7.97;7.18;;;;;;;19.92;61.23;97513.84;5055869;28;20536;-79
2021/06/12 01:00:22;;;;;;;6.88;6.28;;;;;;;20.06;60.82;97509.31;5057785;28;20124;-78
2021/06/12 01:02:48;;;;;;;7.13;6.53;;;;;;;20.17;60.69;97525.75;5084424;22;20135;-82
2021/06/12 01:05:16;;;;;;;7.50;6.80;;;;;;;20.08;60.87;97523.00;5052328;28;20116;-83
2021/06/12 01:07:42;;;;;;;7.15;6.57;;;;;;;20.06;61.40;97511.16;5035355;28;20116;-82
2021/06/12 01:10:10;;;;;;;8.00;7.20;;;;;;;19.96;61.44;97509.53;5015068;28;20426;-83
2021/06/12 01:12:46;;;;;;;7.50;6.88;;;;;;;19.85;61.94;97514.25;5052619;28;20089;-83
2021/06/12 01:15:11;;;;;;;6.78;6.18;;;;;;;19.92;61.73;97504.03;5026669;28;20052;-83
2021/06/12 01:17:47;;;;;;;7.60;7.00;;;;;;;19.70;62.28;97502.09;5014269;28;20021;-83
2021/06/12 01:20:24;;;;;;;8.05;7.35;;;;;;;19.71;62.13;97506.31;5034980;28;20040;-83
2021/06/12 01:23:11;;;;;;;7.35;6.75;;;;;;;19.68;62.49;97500.84;5045039;28;20427;-83
2021/06/12 01:25:37;;;;;;;8.05;7.35;;;;;;;19.89;61.89;97491.41;5054222;28;20024;-83
2021/06/12 01:28:21;;;;;;;8.30;7.60;;;;;;;19.86;62.16;97497.31;5039865;28;20095;-82
2021/06/12 01:30:49;;;;;;;8.18;7.38;;;;;;;19.74;62.25;97486.44;5021028;28;20063;-82
2021/06/12 01:33:14;;;;;;;8.57;7.78;;;;;;;19.77;62.04;97480.59;5046877;28;20073;-83
2021/06/12 01:35:47;;;;;;;7.68;6.97;;;;;;;19.64;62.05;97492.72;5035190;28;20070;-83
2021/06/12 01:38:18;;;;;;;7.72;7.03;;;;;;;19.66;61.81;97493.19;5030947;28;20523;-83
2021/06/12 01:40:45;;;;;;;7.40;6.80;;;;;;;19.73;61.36;97490.94;5016286;28;20036;-83
2021/06/12 01:43:11;;;;;;;8.38;7.50;;;;;;;19.75;61.60;97493.31;5036255;28;20032;-82
2021/06/12 01:45:43;;;;;;;7.43;6.72;;;;;;;19.62;61.80;97492.22;5029591;28;20032;-83
2021/06/12 01:48:09;;;;;;;7.75;7.05;;;;;;;19.59;61.69;97483.03;5017278;28;20021;-83
2021/06/12 01:50:36;;;;;;;8.02;7.25;;;;;;;19.53;61.86;97486.06;5033059;28;20029;-83
2021/06/12 01:53:02;;;;;;;8.25;7.55;;;;;;;19.55;61.80;97489.19;5049577;28;20451;-83
2021/06/12 01:55:29;;;;;;;8.45;7.55;;;;;;;19.45;61.88;97495.47;5034257;28;20044;-83
2021/06/12 01:57:55;;;;;;;8.55;7.88;;;;;;;19.52;62.08;97505.63;5009397;28;20069;-83
2021/06/12 02:00:21;;;;;;;8.35;7.65;;;;;;;19.47;62.62;97503.88;5043766;28;20041;-83
2021/06/12 02:02:47;;;;;;;8.18;7.47;;;;;;;19.40;62.70;97498.22;5032626;28;20487;-82
2021/06/12 02:05:14;;;;;;;8.30;7.57;;;;;;;19.38;62.31;97498.50;5042704;28;20285;-83
2021/06/12 02:07:40;;;;;;;7.75;7.15;;;;;;;19.45;62.60;97506.81;5008067;28;20658;-82
2021/06/12 02:10:07;;;;;;;9.40;8.02;;;;;;;19.36;62.85;97492.72;5042120;28;20067;-82
2021/06/12 02:12:35;;;;;;;8.13;7.50;;;;;;;19.35;62.80;97491.16;5029853;28;20025;-83
2021/06/12 02:15:01;;;;;;;8.77;7.97;;;;;;;19.40;63.20;97493.72;5026547;28;20046;-83
2021/06/12 02:17:30;;;;;;;9.02;8.13;;;;;;;19.31;62.88;97492.03;5024609;28;20025;-82
2021/06/12 02:19:55;;;;;;;7.75;7.15;;;;;;;19.43;62.98;97489.69;5025192;28;20042;-83
2021/06/12 02:22:21;;;;;;;8.60;7.82;;;;;;;19.39;62.82;97488.72;5022212;28;20029;-83
2021/06/12 02:24:46;;;;;;;8.18;7.47;;;;;;;19.37;63.14;97480.31;5001087;28;20112;-83
2021/06/12 02:27:12;;;;;;;8.25;7.53;;;;;;;19.30;63.26;97472.78;5023245;28;20025;-83
2021/06/12 02:29:38;;;;;;;7.95;7.18;;;;;;;19.36;63.19;97473.47;5018376;28;20029;-83
2021/06/12 02:32:11;;;;;;;8.23;7.53;;;;;;;19.33;63.19;97477.47;5006467;28;20633;-83
2021/06/12 02:34:37;;;;;;;7.93;7.25;;;;;;;19.45;62.31;97469.06;4996625;28;20029;-83
2021/06/12 02:37:07;;;;;;;8.40;7.60;;;;;;;19.34;62.09;97479.03;5048026;28;20029;-83
2021/06/12 02:39:33;;;;;;;7.68;7.00;;;;;;;19.34;62.01;97484.31;5039617;28;20435;-83
2021/06/12 02:41:59;;;;;;;7.65;6.78;;;;;;;19.32;61.61;97489.09;5011617;28;20676;-83
2021/06/12 02:44:25;;;;;;;6.95;6.40;;;;;;;19.22;61.96;97486.66;5011878;28;20051;-83
2021/06/12 02:46:54;;;;;;;7.45;6.85;;;;;;;19.03;62.00;97481.47;5028868;28;20029;-82
2021/06/12 02:49:20;;;;;;;7.63;6.93;;;;;;;18.97;62.10;97474.69;5037480;28;20044;-82
2021/06/12 02:51:48;;;;;;;7.50;6.90;;;;;;;18.90;62.37;97477.72;5006354;28;20542;-82
2021/06/12 02:54:17;;;;;;;8.10;7.38;;;;;;;18.98;62.40;97484.97;5021383;28;20037;-82
2021/06/12 02:56:44;;;;;;;8.52;7.72;;;;;;;18.88;62.68;97485.16;5012655;28;20033;-82
2021/06/12 02:59:10;;;;;;;8.35;7.25;;;;;;;18.92;62.76;97487.97;5016063;28;20411;-82
2021/06/12 03:01:37;;;;;;;7.10;6.40;;;;;;;18.94;62.24;97486.63;5022695;28;20072;-82
2021/06/12 03:04:03;;;;;;;7.68;6.97;;;;;;;18.92;62.40;97487.97;5015008;28;20041;-82
2021/06/12 03:06:29;;;;;;;8.18;7.38;;;;;;;18.86;62.77;97492.56;5029015;28;20047;-82
2021/06/12 03:08:55;;;;;;;7.68;6.90;;;;;;;18.84;62.91;97503.41;5005455;28;20033;-82
2021/06/12 03:11:22;;;;;;;7.95;7.25;;;;;;;18.81;63.28;97500.53;5005701;28;20033;-83
2021/06/12 03:13:49;;;;;;;7.97;7.20;;;;;;;18.83;62.82;97501.88;5017546;28;20043;-83
2021/06/12 03:16:16;;;;;;;8.50;7.80;;;;;;;18.78;63.15;97494.00;5023237;28;20061;-82
2021/06/12 03:18:46;;;;;;;8.90;8.10;;;;;;;18.79;63.04;97514.03;5016844;28;20033;-83
2021/06/12 03:21:11;;;;;;;8.25;7.57;;;;;;;18.78;63.27;97512.47;5000473;28;20084;-83
2021/06/12 03:23:37;;;;;;;7.97;7.18;;;;;;;18.76;63.25;97503.25;5000191;28;20029;-83
2021/06/12 03:26:03;;;;;;;8.68;7.93;;;;;;;18.73;63.51;97512.56;5009344;28;20061;-83
2021/06/12 03:28:31;;;;;;;7.32;6.63;;;;;;;18.67;63.43;97511.06;5009897;28;20028;-83
2021/06/12 03:30:56;;;;;;;8.23;7.47;;;;;;;18.82;63.04;97516.13;5016643;28;20086;-83
2021/06/12 03:33:23;;;;;;;7.80;7.10;;;;;;;18.77;63.19;97508.25;5043812;28;20029;-82
2021/06/12 03:35:49;;;;;;;8.18;7.38;;;;;;;18.65;63.68;97500.03;5044123;28;20480;-82
2021/06/12 03:38:15;;;;;;;7.40;6.80;;;;;;;18.68;63.76;97494.19;5024335;28;20029;-83
2021/06/12 03:40:40;;;;;;;8.07;7.28;;;;;;;18.67;63.83;97503.16;5001560;28;20036;-82
2021/06/12 03:43:07;;;;;;;8.38;7.28;;;;;;;18.66;63.63;97501.56;5007947;28;20029;-82
2021/06/12 03:45:40;;;;;;;8.23;7.43;;;;;;;18.63;63.04;97508.22;5014113;28;20021;-82
2021/06/12 03:48:12;;;;;;;7.70;6.95;;;;;;;18.80;62.09;97497.13;5014209;28;20229;-83
2021/06/12 03:50:39;;;;;;;7.50;6.82;;;;;;;18.81;62.21;97506.59;5035475;28;20116;-82
2021/06/12 03:53:06;;;;;;;7.80;7.07;;;;;;;18.73;62.27;97512.56;5028438;28;20061;-82
2021/06/12 03:55:32;;;;;;;7.50;6.70;;;;;;;18.70;62.23;97508.63;5015275;28;20399;-82
2021/06/12 03:57:58;;;;;;;8.07;7.25;;;;;;;18.67;62.45;97518.97;5011192;28;20021;-82
2021/06/12 04:00:24;;;;;;;8.13;7.43;;;;;;;18.57;62.95;97519.13;5030837;28;20417;-82
2021/06/12 04:02:49;;;;;;;7.40;6.80;;;;;;;18.57;63.16;97516.50;5024193;28;20033;-82
2021/06/12 04:05:17;;;;;;;8.20;7.40;;;;;;;18.62;62.83;97521.69;5037223;28;20057;-83
2021/06/12 04:07:44;;;;;;;7.03;6.38;;;;;;;18.64;62.55;97522.19;5006713;28;20022;-82
2021/06/12 04:10:10;;;;;;;7.28;6.68;;;;;;;18.64;62.82;97522.94;5039664;28;20033;-83
2021/06/12 04:12:35;;;;;;;7.68;7.00;;;;;;;18.67;63.17;97518.97;5031443;28;20536;-83
2021/06/12 04:15:01;;;;;;;7.47;6.78;;;;;;;18.74;62.96;97524.66;5026418;28;20037;-82
2021/06/12 04:17:26;;;;;;;8.38;7.68;;;;;;;18.73;63.19;97525.75;5001681;28;20021;-82
2021/06/12 04:19:54;;;;;;;8.27;7.57;;;;;;;18.75;63.32;97526.22;5028375;28;20037;-83
2021/06/12 04:22:19;;;;;;;8.43;7.63;;;;;;;18.72;63.10;97526.81;5039456;28;20036;-83
2021/06/12 04:24:45;;;;;;;8.00;7.22;;;;;;;18.75;63.43;97526.22;5014832;28;20029;-82
2021/06/12 04:27:10;;;;;;;8.13;7.43;;;;;;;18.78;63.58;97530.13;5042175;28;20036;-82
2021/06/12 04:29:36;;;;;;;8.43;7.68;;;;;;;18.89;63.51;97535.00;5024124;28;20037;-82
2021/06/12 04:32:04;;;;;;;8.27;7.63;;;;;;;18.93;63.44;97514.06;5022099;28;20043;-82
2021/06/12 04:34:30;;;;;;;8.07;7.38;;;;;;;19.02;63.65;97524.75;5021192;28;20034;-82
2021/06/12 04:36:55;;;;;;;8.07;7.38;;;;;;;19.07;63.57;97522.03;5019880;28;20115;-82
2021/06/12 04:39:21;;;;;;;8.00;7.20;;;;;;;19.07;63.02;97522.81;5031855;28;20131;-82
2021/06/12 04:41:46;;;;;;;9.20;8.35;;;;;;;19.13;62.83;97520.88;5030872;28;20028;-82
2021/06/12 04:44:12;;;;;;;8.02;7.32;;;;;;;19.20;62.72;97521.25;5048086;28;20037;-82
2021/06/12 04:46:39;;;;;;;8.50;7.78;;;;;;;19.25;62.61;97520.41;5015342;28;20024;-82
2021/06/12 04:49:04;;;;;;;8.23;7.60;;;;;;;19.36;62.50;97524.41;5018799;28;20064;-82
2021/06/12 04:51:30;;;;;;;7.75;6.82;;;;;;;19.45;62.47;97532.44;5020846;28;20999;-83
2021/06/12 04:53:55;;;;;;;8.00;7.20;;;;;;;19.50;62.24;97535.00;5024024;28;20116;-83
2021/06/12 04:56:21;;;;;;;8.32;7.55;;;;;;;19.60;62.08;97534.00;5001268;28;20667;-82
2021/06/12 04:58:46;;;;;;;7.53;6.93;;;;;;;19.69;62.05;97536.72;5046381;28;20041;-82
2021/06/12 05:01:12;;;;;;;7.85;7.22;;;;;;;19.78;61.69;97541.06;5038386;28;20715;-83
2021/06/12 05:03:37;;;;;;;8.40;7.38;;;;;;;19.90;61.73;97532.63;5005394;28;20037;-82
2021/06/12 05:06:03;;;;;;;7.80;7.10;;;;;;;20.01;61.79;97539.28;5010433;28;20170;-83
2021/06/12 05:08:29;;;;;;;8.48;7.72;;;;;;;20.12;61.50;97545.13;5018013;28;20170;-83
2021/06/12 05:10:54;;;;;;;8.60;7.80;;;;;;;20.15;61.74;97544.53;5038437;28;20033;-82
2021/06/12 05:13:20;;;;;;;8.07;7.38;;;;;;;20.20;61.85;97546.28;5044225;28;20052;-82
2021/06/12 05:15:47;;;;;;;7.97;7.25;;;;;;;20.31;61.46;97547.63;5011072;28;20034;-82
2021/06/12 05:18:13;;;;;;;8.55;7.75;;;;;;;20.37;61.45;97541.16;5025723;28;20365;-81
2021/06/12 05:20:39;;;;;;;8.80;8.00;;;;;;;20.57;61.50;97547.06;5030836;28;20033;-81
2021/06/12 05:23:05;;;;;;;9.23;8.43;;;;;;;20.72;61.07;97543.31;5047390;28;20052;-82
2021/06/12 05:25:32;;;;;;;8.68;7.90;;;;;;;20.89;61.00;97540.00;5030651;28;20039;-83
2021/06/12 05:27:58;;;;;;;9.32;8.57;;;;;;;21.06;60.76;97545.38;5015987;28;20242;-82
2021/06/12 05:30:23;;;;;;;9.00;8.30;;;;;;;21.20;60.74;97549.78;5021994;28;20036;-83
2021/06/12 05:32:53;;;;;;;9.63;8.73;;;;;;;21.23;60.27;97541.22;5014062;28;20034;-83
2021/06/12 05:35:19;;;;;;;10.02;9.13;;;;;;;21.51;60.29;97540.00;5046538;28;20033;-82
2021/06/12 05:37:44;;;;;;;9.60;8.80;;;;;;;21.61;60.13;97544.22;5018230;28;20030;-82
2021/06/12 05:40:11;;;;;;;9.20;8.40;;;;;;;21.70;59.75;97550.34;5031126;28;20048;-83
2021/06/12 05:42:37;;;;;;;8.68;7.88;;;;;;;21.82;59.48;97555.03;5033041;28;20495;-83
2021/06/12 05:45:04;;;;;;;8.45;7.72;;;;;;;21.80;59.17;97557.22;5005142;28;20071;-83
2021/06/12 05:47:30;;;;;;;7.82;7.13;;;;;;;21.89;58.97;97558.00;5021015;28;20040;-82
2021/06/12 05:49:55;;;;;;;7.93;7.32;;;;;;;21.99;58.39;97550.88;5005860;28;20026;-83
2021/06/12 05:52:20;;;;;;;8.10;7.30;;;;;;;22.13;58.12;97550.75;5013747;28;20714;-82
2021/06/12 05:54:46;;;;;;;8.00;7.30;;;;;;;22.28;58.08;97554.81;5030576;28;20048;-83
2021/06/12 05:57:11;;;;;;;7.72;7.13;;;;;;;22.43;57.73;97551.69;5032725;28;20037;-83
2021/06/12 05:59:36;;;;;;;7.05;6.47;;;;;;;22.65;57.29;97547.34;5002373;28;20139;-82
2021/06/12 06:02:02;;;;;;;7.50;6.80;;;;;;;22.77;56.64;97545.63;5014644;28;20035;-83
2021/06/12 06:04:31;;;;;;;7.60;7.00;;;;;;;22.79;55.97;97553.22;5017447;28;20534;-81
2021/06/12 06:06:57;;;;;;;7.05;6.35;;;;;;;22.96;56.24;97553.22;5014575;28;20032;-82
2021/06/12 06:09:23;;;;;;;7.57;6.88;;;;;;;23.02;55.51;97556.50;5005355;28;20067;-82
2021/06/12 06:11:49;;;;;;;6.03;5.60;;;;;;;22.95;55.52;97550.88;5013996;28;20034;-82
2021/06/12 06:14:15;;;;;;;6.95;6.22;;;;;;;22.94;56.20;97562.59;5027046;28;20114;-83
2021/06/12 06:16:41;;;;;;;7.05;6.45;;;;;;;22.96;55.92;97563.06;5017392;28;20032;-82
2021/06/12 06:19:06;;;;;;;7.43;6.80;;;;;;;23.10;55.93;97563.69;5022218;28;20030;-82
2021/06/12 06:21:34;;;;;;;6.97;6.38;;;;;;;23.25;55.53;97565.03;5020046;28;20392;-83
2021/06/12 06:23:59;;;;;;;6.68;6.13;;;;;;;23.65;54.46;97572.72;5017492;28;20088;-83
2021/06/12 06:26:25;;;;;;;7.13;6.53;;;;;;;24.01;53.77;97573.31;5022199;28;20163;-83
2021/06/12 06:28:50;;;;;;;6.43;5.90;;;;;;;24.43;52.41;97579.44;4989745;28;20030;-82
2021/06/12 06:31:15;;;;;;;6.88;6.28;;;;;;;24.79;51.25;97572.75;5025069;28;20029;-83
2021/06/12 06:33:41;;;;;;;6.22;5.63;;;;;;;25.13;50.23;97578.84;5040548;28;20030;-83
2021/06/12 06:36:06;;;;;;;5.88;5.32;;;;;;;25.30;49.82;97577.13;5009578;28;20041;-83
2021/06/12 06:38:32;;;;;;;5.88;5.38;;;;;;;25.46;48.99;97583.34;5020255;28;20124;-82
2021/06/12 06:40:57;;;;;;;6.82;6.25;;;;;;;25.57;49.24;97581.81;5053406;28;20498;-83
2021/06/12 06:43:23;;;;;;;5.85;5.35;;;;;;;25.66;49.06;97583.63;5012826;28;20116;-81
2021/06/12 06:45:48;;;;;;;6.72;5.53;;;;;;;25.95;49.04;97585.28;5039142;28;20068;-81
2021/06/12 06:48:16;;;;;;;5.85;5.28;;;;;;;26.14;48.42;97587.38;5045513;28;20056;-81
2021/06/12 06:50:41;;;;;;;6.00;5.40;;;;;;;26.50;47.07;97588.41;5021482;28;20034;-81
2021/06/12 06:53:07;;;;;;;5.13;4.80;;;;;;;26.58;46.84;97584.03;5041496;28;20083;-84
2021/06/12 06:55:32;;;;;;;5.82;4.50;;;;;;;26.74;45.78;97589.47;5012237;28;20032;-83
2021/06/12 06:57:58;;;;;;;4.65;4.25;;;;;;;26.84;46.12;97573.72;5005442;28;20061;-83
2021/06/12 07:00:26;;;;;;;5.38;4.88;;;;;;;26.96;46.03;97578.22;5042014;28;20033;-83
2021/06/12 07:02:52;;;;;;;5.45;4.95;;;;;;;27.01;45.92;97586.00;5038219;28;20033;-82
2021/06/12 07:05:17;;;;;;;5.30;4.97;;;;;;;27.10;46.11;97583.91;5009668;28;20034;-83
2021/06/12 07:07:43;;;;;;;4.93;4.43;;;;;;;27.33;45.79;97579.91;5032874;28;20398;-83
2021/06/12 07:10:09;;;;;;;4.93;4.53;;;;;;;27.40;45.70;97588.91;5012547;28;20630;-81
2021/06/12 07:12:34;;;;;;;4.65;4.25;;;;;;;27.58;45.39;97586.66;5045998;28;20030;-82
2021/06/12 07:15:00;;;;;;;5.10;4.22;;;;;;;27.82;44.16;97593.69;5004036;28;20159;-83
2021/06/12 07:17:25;;;;;;;4.40;3.95;;;;;;;27.87;43.93;97592.66;5028298;28;20028;-81
2021/06/12 07:19:50;;;;;;;4.75;4.35;;;;;;;27.86;44.06;97593.00;5030693;28;20134;-81
2021/06/12 07:22:16;;;;;;;4.78;4.38;;;;;;;27.91;44.16;97603.44;5051366;28;20056;-83
2021/06/12 07:24:41;;;;;;;4.03;3.60;;;;;;;27.76;44.34;97603.13;5034486;28;20111;-81
2021/06/12 07:27:08;;;;;;;4.55;4.00;;;;;;;27.66;44.82;97600.97;5005552;28;20029;-81
2021/06/12 07:29:33;;;;;;;4.68;3.95;;;;;;;27.77;44.48;97593.97;5047004;28;20562;-82
2021/06/12 07:31:59;;;;;;;3.55;3.20;;;;;;;28.02;43.50;97599.13;5044410;28;20108;-81
2021/06/12 07:34:24;;;;;;;4.00;3.55;;;;;;;28.00;43.37;97590.66;5021643;28;20522;-84
2021/06/12 07:36:50;;;;;;;4.63;3.42;;;;;;;28.07;43.43;97585.50;5015542;28;20021;-82
2021/06/12 07:39:15;;;;;;;3.42;2.80;;;;;;;28.18;42.13;97591.06;5022941;28;20059;-84
2021/06/12 07:41:41;;;;;;;3.13;2.75;;;;;;;28.29;42.12;97591.28;5018037;28;20028;-84
2021/06/12 07:44:07;;;;;;;2.42;2.28;;;;;;;28.52;41.50;97583.34;5023817;28;20067;-84
2021/06/12 07:46:33;;;;;;;2.08;1.98;;;;;;;28.32;41.64;97574.50;5021382;28;20120;-83
2021/06/12 07:48:59;;;;;;;2.42;2.33;;;;;;;28.26;41.31;97575.91;5025428;28;20404;-84
2021/06/12 07:51:31;;;;;;;2.38;2.17;;;;;;;28.25;41.60;97585.09;5027451;28;20064;-82
2021/06/12 07:53:56;;;;;;;2.83;2.20;;;;;;;28.23;40.83;97588.13;5028863;28;20034;-82
2021/06/12 07:56:22;;;;;;;2.20;1.75;;;;;;;27.99;40.70;97589.13;5040760;28;20079;-83
2021/06/12 07:58:47;;;;;;;2.13;1.92;;;;;;;28.25;40.78;97577.06;5016497;28;20040;-83
2021/06/12 08:01:12;;;;;;;2.65;2.30;;;;;;;28.63;40.22;97567.50;5051912;28;20029;-82
2021/06/12 08:03:38;;;;;;;1.90;1.67;;;;;;;28.94;39.70;97570.00;5057760;28;20037;-84
2021/06/12 08:06:03;;;;;;;2.35;2.20;;;;;;;29.05;39.99;97572.09;5051737;28;20043;-81
2021/06/12 08:08:29;;;;;;;3.55;2.67;;;;;;;29.12;39.55;97562.25;5037876;28;20056;-82
2021/06/12 08:10:54;;;;;;;2.33;2.13;;;;;;;29.38;38.69;97568.84;5051388;28;20028;-81
2021/06/12 08:13:20;;;;;;;2.05;1.92;;;;;;;29.33;39.35;97572.59;5034326;28;20095;-81
2021/06/12 08:15:45;;;;;;;2.45;2.35;;;;;;;29.07;39.68;97564.47;5024489;28;20517;-81
2021/06/12 08:18:10;;;;;;;2.45;2.22;;;;;;;28.87;40.30;97553.78;5041958;28;20037;-82
2021/06/12 08:20:36;;;;;;;2.63;2.42;;;;;;;28.84;42.66;97554.50;5032622;28;20029;-82
2021/06/12 08:23:02;;;;;;;2.70;2.50;;;;;;;28.87;42.01;97561.81;5015858;28;20052;-83
2021/06/12 08:25:27;;;;;;;2.55;2.35;;;;;;;29.23;40.15;97551.72;5001704;28;20064;-82
2021/06/12 08:27:53;;;;;;;2.75;2.53;;;;;;;29.43;39.50;97549.75;5040960;28;20443;-84
2021/06/12 08:30:19;;;;;;;2.80;2.60;;;;;;;29.57;39.49;97554.56;5009222;28;20022;-82
2021/06/12 08:32:44;;;;;;;2.70;2.50;;;;;;;29.85;39.65;97559.63;5024465;28;20025;-82
2021/06/12 08:35:10;;;;;;;2.97;2.78;;;;;;;29.96;38.52;97550.94;5028595;28;20029;-82
2021/06/12 08:37:35;;;;;;;3.08;2.85;;;;;;;30.11;37.62;97552.66;5017913;28;20028;-81
2021/06/12 08:40:02;;;;;;;3.10;2.80;;;;;;;30.03;38.77;97559.06;5045102;28;20045;-81
2021/06/12 08:42:28;;;;;;;2.83;2.63;;;;;;;30.14;38.34;97564.56;5040030;28;20037;-82
2021/06/12 08:44:56;;;;;;;2.38;2.08;;;;;;;30.36;38.04;97561.03;5034500;28;20033;-80
2021/06/12 08:47:22;;;;;;;2.97;2.67;;;;;;;30.43;39.87;97550.41;5024707;28;20114;-81
2021/06/12 08:49:47;;;;;;;2.35;2.10;;;;;;;30.85;37.19;97550.44;5012030;28;20467;-82
2021/06/12 08:52:13;;;;;;;2.53;2.05;;;;;;;30.93;36.98;97552.03;5011428;28;20123;-81
2021/06/12 08:54:42;;;;;;;2.47;2.03;;;;;;;30.65;36.54;97558.69;5018352;28;20387;-83
2021/06/12 08:57:12;;;;;;;2.00;1.90;;;;;;;30.76;36.72;97556.88;5026001;28;20036;-83
2021/06/12 08:59:37;;;;;;;2.17;2.03;;;;;;;30.91;36.39;97559.72;5026302;28;20037;-83
2021/06/12 09:02:05;;;;;;;1.98;1.88;;;;;;;31.17;35.69;97564.97;5040068;28;20041;-82
2021/06/12 09:04:43;;;;;;;2.40;2.20;;;;;;;30.72;35.86;97566.81;5011477;28;20076;-81
2021/06/12 09:07:26;;;;;;;2.05;1.95;;;;;;;30.41;34.66;97565.31;5041265;28;20029;-80
2021/06/12 09:09:54;;;;;;;1.65;1.55;;;;;;;30.23;35.23;97565.09;5019228;28;20048;-82
2021/06/12 09:12:20;;;;;;;3.25;2.67;;;;;;;30.42;36.66;97574.94;5042521;28;20033;-81
2021/06/12 09:15:07;;;;;;;2.10;2.00;;;;;;;30.15;36.77;97574.19;5054739;28;20087;-81
2021/06/12 09:17:45;;;;;;;2.40;2.20;;;;;;;30.38;37.19;97574.91;5045550;28;20037;-81
2021/06/12 09:20:11;;;;;;;2.40;2.20;;;;;;;30.54;37.56;97576.63;5046331;28;20083;-80
2021/06/12 09:22:36;;;;;;;2.42;2.20;;;;;;;30.24;35.41;97580.81;5021383;28;20025;-83
2021/06/12 09:25:03;;;;;;;2.28;2.00;;;;;;;30.06;35.77;97580.59;5023187;28;20103;-84
2021/06/12 09:27:29;;;;;;;2.17;1.67;;;;;;;30.26;34.99;97585.81;5021650;28;20025;-82
2021/06/12 09:29:54;;;;;;;2.05;1.92;;;;;;;30.32;35.55;97592.44;5009758;28;20120;-83
2021/06/12 09:32:23;;;;;;;2.10;1.90;;;;;;;30.18;34.35;97594.97;5014269;28;20737;-83
2021/06/12 09:34:52;;;;;;;2.08;1.90;;;;;;;30.35;35.01;97594.44;5048595;28;20059;-83
2021/06/12 09:37:19;;;;;;;1.85;1.77;;;;;;;30.62;34.47;97599.72;5053999;28;20036;-83
2021/06/12 09:40:24;;;;;;;2.17;1.98;;;;;;;30.51;32.87;97599.59;5014368;28;20124;-83
2021/06/12 09:42:55;;;;;;;1.92;1.52;;;;;;;30.86;33.72;97589.63;5019489;28;20152;-80
2021/06/12 09:45:23;;;;;;;2.03;1.70;;;;;;;30.52;33.30;97585.03;5027642;28;20044;-84
2021/06/12 09:47:48;;;;;;;1.63;1.52;;;;;;;30.76;35.09;97586.47;5009284;28;20033;-83
2021/06/12 09:50:15;;;;;;;1.60;1.50;;;;;;;30.83;36.66;97585.75;5007751;28;20033;-81
2021/06/12 09:52:44;;;;;;;1.55;1.45;;;;;;;30.93;34.26;97587.00;5048654;28;20037;-81
2021/06/12 09:55:30;;;;;;;1.35;1.25;;;;;;;30.74;34.59;97586.06;5027152;28;20034;-83
2021/06/12 09:57:58;;;;;;;2.60;1.30;;;;;;;30.71;32.42;97596.75;5053213;28;20037;-82
2021/06/12 10:00:32;;;;;;;1.35;1.25;;;;;;;31.10;33.39;97588.34;5012256;28;20029;-83
2021/06/12 10:02:58;;;;;;;1.40;1.30;;;;;;;31.49;32.17;97599.44;5013653;28;20033;-82
2021/06/12 10:05:25;;;;;;;1.60;1.33;;;;;;;31.70;32.42;97587.31;5001419;28;20033;-80
2021/06/12 10:07:55;;;;;;;1.17;1.17;;;;;;;31.73;31.65;97581.19;5052479;28;20033;-83
2021/06/12 10:10:21;;;;;;;1.45;1.35;;;;;;;31.91;32.15;97584.78;5040456;28;20476;-83
2021/06/12 10:12:47;;;;;;;1.45;1.40;;;;;;;31.82;31.12;97578.94;5029366;28;20035;-81
2021/06/12 10:15:13;;;;;;;1.10;1.00;;;;;;;31.76;30.99;97577.75;5014323;28;20060;-82
2021/06/12 10:17:42;;;;;;;1.17;1.17;;;;;;;31.78;30.84;97580.06;5029220;28;20100;-82
2021/06/12 10:20:08;;;;;;;1.23;1.13;;;;;;;32.14;30.76;97589.16;5054218;28;20124;-83
2021/06/12 10:22:35;;;;;;;1.23;1.20;;;;;;;32.01;30.25;97588.69;5030597;28;20029;-81
2021/06/12 10:25:03;;;;;;;1.00;1.00;;;;;;;31.25;31.17;97595.41;5034649;28;20499;-79
2021/06/12 10:27:29;;;;;;;1.83;1.08;;;;;;;31.40;31.38;97596.31;5031163;28;20033;-81
2021/06/12 10:29:54;;;;;;;1.17;1.08;;;;;;;31.69;31.68;97591.16;5026474;28;20453;-80
2021/06/12 10:32:20;;;;;;;1.00;1.00;;;;;;;31.91;30.59;97589.38;5048678;28;20178;-81
2021/06/12 10:34:50;;;;;;;1.00;1.00;;;;;;;32.05;30.81;97580.63;5022053;28;20045;-82
2021/06/12 10:37:17;;;;;;;0.82;0.82;;;;;;;32.06;31.30;97580.28;5028176;28;20060;-81
2021/06/12 10:39:42;;;;;;;1.02;0.90;;;;;;;32.11;28.94;97584.50;5022951;28;20039;-83
2021/06/12 10:42:23;;;;;;;0.80;0.80;;;;;;;31.87;28.63;97580.50;5008378;28;20025;-80
2021/06/12 10:44:51;;;;;;;1.90;1.02;;;;;;;31.11;27.58;97571.84;5035111;28;20559;-82
2021/06/12 10:47:41;;;;;;;1.13;0.77;;;;;;;31.10;28.77;97575.69;5035202;28;20025;-83
2021/06/12 10:50:29;;;;;;;1.05;0.80;;;;;;;31.39;28.00;97578.59;5025588;28;20123;-80
2021/06/12 10:53:13;;;;;;;0.70;0.70;;;;;;;31.73;28.50;97575.81;5027013;28;20037;-82
2021/06/12 10:55:39;;;;;;;1.05;0.90;;;;;;;32.04;30.47;97581.75;5029676;28;20029;-82
2021/06/12 10:58:43;;;;;;;1.92;1.00;;;;;;;32.07;30.92;97565.63;5022503;28;20042;-82
2021/06/12 11:01:15;;;;;;;0.85;0.85;;;;;;;32.12;30.62;97569.91;5012067;28;20033;-82
2021/06/12 11:06:57;;;;;;;2.65;1.30;;;;;;;32.50;29.31;97558.88;4989328;28;20393;-82
2021/06/12 11:09:27;;;;;;;0.90;0.90;;;;;;;32.58;28.11;97549.69;4972297;28;20068;-83
2021/06/12 11:11:54;;;;;;;0.90;0.90;;;;;;;32.22;29.38;97553.00;4955082;28;20040;-83
2021/06/12 11:14:25;;;;;;;2.25;0.95;;;;;;;31.88;29.81;97563.19;4957549;28;20528;-83
2021/06/12 11:17:12;;;;;;;0.98;0.88;;;;;;;31.77;29.33;97563.13;4973696;28;20030;-83
2021/06/12 11:20:03;;;;;;;0.90;0.90;;;;;;;31.82;29.49;97560.06;4979829;28;20116;-80
2021/06/12 11:22:35;;;;;;;1.25;0.80;;;;;;;31.60;29.46;97561.09;4973579;28;20452;-82
2021/06/12 11:25:28;;;;;;;0.65;0.65;;;;;;;31.57;28.95;97559.94;4978414;28;20057;-83
2021/06/12 11:28:14;;;;;;;0.80;0.80;;;;;;;31.16;31.43;97560.75;4982861;28;20118;-82
2021/06/12 11:30:40;;;;;;;1.45;0.80;;;;;;;31.18;30.05;97574.59;4976152;28;20132;-80
2021/06/12 11:33:05;;;;;;;0.73;0.73;;;;;;;31.05;30.00;97573.34;4994218;28;20034;-81
2021/06/12 11:35:48;;;;;;;1.48;0.90;;;;;;;30.63;31.45;97552.91;4973395;28;20053;-80
2021/06/12 11:38:16;;;;;;;0.65;0.65;;;;;;;30.76;30.71;97574.91;4971836;28;20518;-82
2021/06/12 11:40:58;;;;;;;0.80;0.80;;;;;;;30.52;31.15;97570.81;5012424;28;20048;-82